createdAt,value
2023-04-02T00:00:29.453Z,100989.09
2023-04-02T00:02:51.095Z,101007.16
2023-04-02T00:05:30.167Z,101005.03
2023-04-02T00:07:58.041Z,101014.50
2023-04-02T00:10:39.858Z,101011.28
2023-04-02T00:13:10.559Z,101016.94
2023-04-02T00:15:34.130Z,101022.03
2023-04-02T00:17:57.942Z,101029.66
2023-04-02T00:20:22.131Z,101033.22
2023-04-02T00:22:45.004Z,101032.22
2023-04-02T00:25:14.109Z,101033.31
2023-04-02T00:27:36.660Z,101048.38
2023-04-02T00:29:59.801Z,101044.13
2023-04-02T00:32:29.041Z,101053.59
2023-04-02T00:34:51.589Z,101053.09
2023-04-02T00:37:25.195Z,101055.03
2023-04-02T00:39:47.784Z,101054.22
2023-04-02T00:42:12.900Z,101057.88
2023-04-02T00:44:44.037Z,101064.16
2023-04-02T00:47:26.943Z,101063.13
2023-04-02T00:49:59.448Z,101079.06
2023-04-02T00:52:28.365Z,101081.00
2023-04-02T00:55:01.096Z,101071.06
2023-04-02T00:57:28.290Z,101077.16
2023-04-02T01:00:21.410Z,101086.81
2023-04-02T01:02:43.214Z,101102.25
2023-04-02T01:05:25.827Z,101097.97
2023-04-02T01:08:12.958Z,101110.84
2023-04-02T01:10:58.650Z,101104.06
2023-04-02T01:13:32.749Z,101111.75
2023-04-02T01:16:16.891Z,101116.72
2023-04-02T01:19:04.587Z,101131.38
2023-04-02T01:22:08.637Z,101133.78
2023-04-02T01:24:33.992Z,101128.81
2023-04-02T01:27:04.095Z,101142.53
2023-04-02T01:29:39.137Z,101139.59
2023-04-02T01:32:07.776Z,101148.09
2023-04-02T01:34:31.167Z,101158.53
2023-04-02T01:37:32.229Z,101155.81
2023-04-02T01:40:13.004Z,101158.53
2023-04-02T01:42:46.046Z,101169.50
2023-04-02T01:45:19.562Z,101168.69
2023-04-02T01:47:44.753Z,101174.97
2023-04-02T01:50:44.116Z,101177.94
2023-04-02T01:53:15.083Z,101180.47
2023-04-02T01:55:57.310Z,101183.91
2023-04-02T01:58:26.392Z,101187.44
2023-04-02T02:01:02.116Z,101199.91
2023-04-02T02:03:25.329Z,101198.25
2023-04-02T02:05:47.505Z,101207.59
2023-04-02T02:08:31.506Z,101210.94
2023-04-02T02:10:53.468Z,101219.75
2023-04-02T02:13:16.436Z,101221.91
2023-04-02T02:15:38.194Z,101223.88
2023-04-02T02:18:06.872Z,101227.22
2023-04-02T02:20:29.213Z,101223.38
2023-04-02T02:22:51.960Z,101241.22
2023-04-02T02:25:32.530Z,101245.28
2023-04-02T02:28:14.156Z,101259.06
2023-04-02T02:30:49.110Z,101255.59
2023-04-02T02:33:24.083Z,101261.06
2023-04-02T02:36:35.764Z,101264.94
2023-04-02T02:39:13.410Z,101266.69
2023-04-02T02:41:42.311Z,101279.66
2023-04-02T02:44:11.096Z,101282.75
2023-04-02T02:46:38.718Z,101283.28
2023-04-02T02:49:05.663Z,101286.81
2023-04-02T02:51:40.860Z,101286.75
2023-04-02T02:54:06.695Z,101301.81
2023-04-02T02:56:37.286Z,101316.13
2023-04-02T02:59:00.319Z,101300.78
2023-04-02T03:01:30.453Z,101311.19
2023-04-02T03:03:55.435Z,101332.63
2023-04-02T03:06:20.746Z,101314.38
2023-04-02T03:09:14.895Z,101316.81
2023-04-02T03:11:54.584Z,101329.34
2023-04-02T03:14:32.654Z,101327.34
2023-04-02T03:17:08.979Z,101332.22
2023-04-02T03:19:46.332Z,101340.16
2023-04-02T03:22:25.116Z,101357.09
2023-04-02T03:25:02.075Z,101346.78
2023-04-02T03:27:34.805Z,101350.13
2023-04-02T03:30:09.621Z,101370.47
2023-04-02T03:32:38.448Z,101373.47
2023-04-02T03:35:22.651Z,101376.88
2023-04-02T03:38:27.071Z,101381.56
2023-04-02T03:41:47.298Z,101396.94
2023-04-02T03:44:28.453Z,101398.63
2023-04-02T03:47:10.718Z,101399.19
2023-04-02T03:50:03.180Z,101404.47
2023-04-02T03:52:29.281Z,101418.47
2023-04-02T03:54:57.020Z,101432.13
2023-04-02T03:57:33.134Z,101431.09
2023-04-02T04:00:14.412Z,101443.38
2023-04-02T04:02:54.721Z,101442.03
2023-04-02T04:05:37.881Z,101440.63
2023-04-02T04:08:18.690Z,101456.50
2023-04-02T04:10:43.241Z,101458.69
2023-04-02T04:13:38.978Z,101462.25
2023-04-02T04:16:32.721Z,101472.97
2023-04-02T04:19:24.820Z,101473.31
2023-04-02T04:22:30.092Z,101480.44
2023-04-02T04:25:33.821Z,101494.94
2023-04-02T04:28:34.039Z,101500.13
2023-04-02T04:31:31.040Z,101511.91
2023-04-02T04:34:22.918Z,101515.47
2023-04-02T04:37:07.958Z,101519.06
2023-04-02T04:40:09.224Z,101532.75
2023-04-02T04:42:58.187Z,101534.72
2023-04-02T04:46:16.454Z,101540.72
2023-04-02T04:49:09.477Z,101542.91
2023-04-02T04:51:57.340Z,101554.97
2023-04-02T04:54:40.395Z,101556.34
2023-04-02T04:57:33.790Z,101571.63
2023-04-02T05:00:45.502Z,101575.97
2023-04-02T05:03:33.033Z,101592.38
2023-04-02T05:06:34.036Z,101595.94
2023-04-02T05:09:49.908Z,101601.44
2023-04-02T05:12:51.517Z,101601.41
2023-04-02T05:15:32.102Z,101616.72
2023-04-02T05:18:34.720Z,101617.00
2023-04-02T05:21:16.465Z,101628.25
2023-04-02T05:24:00.164Z,101627.16
2023-04-02T05:26:42.849Z,101640.25
2023-04-02T05:29:26.488Z,101641.09
2023-04-02T05:32:04.270Z,101637.53
2023-04-02T05:34:42.629Z,101638.66
2023-04-02T05:37:26.687Z,101643.28
2023-04-02T05:39:56.859Z,101647.63
2023-04-02T05:42:35.300Z,101647.38
2023-04-02T05:45:41.293Z,101657.47
2023-04-02T05:48:30.710Z,101669.25
2023-04-02T05:51:11.995Z,101668.13
2023-04-02T05:54:05.055Z,101677.97
2023-04-02T05:56:48.837Z,101694.91
2023-04-02T05:59:34.387Z,101690.03
2023-04-02T06:02:36.339Z,101706.16
2023-04-02T06:05:16.829Z,101703.16
2023-04-02T06:08:03.361Z,101712.72
2023-04-02T06:10:51.201Z,101713.25
2023-04-02T06:13:25.241Z,101714.88
2023-04-02T06:15:56.538Z,101735.63
2023-04-02T06:18:36.821Z,101743.31
2023-04-02T06:21:14.254Z,101749.84
2023-04-02T06:23:56.958Z,101764.31
2023-04-02T06:26:39.447Z,101758.59
2023-04-02T06:29:40.215Z,101760.78
2023-04-02T06:32:16.505Z,101760.47
2023-04-02T06:34:48.904Z,101774.69
2023-04-02T06:37:40.037Z,101775.53
2023-04-02T06:40:35.683Z,101788.88
2023-04-02T06:43:35.665Z,101784.53
2023-04-02T06:46:42.412Z,101787.22
2023-04-02T06:49:36.412Z,101803.09
2023-04-02T06:52:13.728Z,101816.44
2023-04-02T06:54:46.503Z,101828.72
2023-04-02T06:57:18.668Z,101829.25
2023-04-02T06:59:53.543Z,101820.50
2023-04-02T07:02:39.349Z,101826.00
2023-04-02T07:05:13.775Z,101843.19
2023-04-02T07:07:50.923Z,101860.38
2023-04-02T07:10:22.947Z,101873.47
2023-04-02T07:12:54.835Z,101864.72
2023-04-02T07:15:27.897Z,101872.13
2023-04-02T07:18:00.390Z,101870.75
2023-04-02T07:20:38.959Z,101881.69
2023-04-02T07:23:15.796Z,101869.13
2023-04-02T07:25:50.327Z,101890.69
2023-04-02T07:28:23.173Z,101890.13
2023-04-02T07:30:56.493Z,101889.56
2023-04-02T07:33:31.213Z,101898.06
2023-04-02T07:36:03.059Z,101902.72
2023-04-02T07:38:34.825Z,101914.47
2023-04-02T07:41:07.407Z,101904.09
2023-04-02T07:43:40.300Z,101905.47
2023-04-02T07:46:16.576Z,101912.81
2023-04-02T07:48:48.408Z,101917.22
2023-04-02T07:51:26.620Z,101929.78
2023-04-02T07:53:58.408Z,101931.97
2023-04-02T07:56:31.829Z,101934.16
2023-04-02T07:59:05.046Z,101937.97
2023-04-02T08:01:36.925Z,101940.41
2023-04-02T08:04:18.882Z,101943.69
2023-04-02T08:06:50.786Z,101943.38
2023-04-02T08:09:22.740Z,101950.50
2023-04-02T08:11:54.497Z,101969.63
2023-04-02T08:14:26.397Z,101961.97
2023-04-02T08:16:58.408Z,101979.44
2023-04-02T08:19:30.795Z,101983.22
2023-04-02T08:22:02.603Z,101999.59
2023-04-02T08:24:34.427Z,101994.41
2023-04-02T08:27:07.566Z,101990.03
2023-04-02T08:29:39.376Z,102006.72
2023-04-02T08:32:16.220Z,102004.81
2023-04-02T08:34:47.985Z,102007.59
2023-04-02T08:37:19.770Z,102012.81
2023-04-02T08:39:51.630Z,102015.25
2023-04-02T08:42:46.201Z,102020.97
2023-04-02T08:45:40.190Z,102028.63
2023-04-02T08:48:15.495Z,102034.41
2023-04-02T08:50:47.585Z,102040.13
2023-04-02T08:53:34.625Z,102052.75
2023-04-02T08:56:26.077Z,102064.16
2023-04-02T08:59:03.707Z,102064.69
2023-04-02T09:02:01.833Z,102074.50
2023-04-02T09:04:34.660Z,102080.28
2023-04-02T09:07:17.053Z,102081.16
2023-04-02T09:09:51.082Z,102081.16
2023-04-02T09:12:29.287Z,102089.34
2023-04-02T09:15:29.506Z,102088.28
2023-04-02T09:18:17.926Z,102093.53
2023-04-02T09:20:50.635Z,102102.75
2023-04-02T09:23:26.170Z,102109.59
2023-04-02T09:26:04.003Z,102106.03
2023-04-02T09:28:38.036Z,102102.22
2023-04-02T09:31:22.326Z,102106.09
2023-04-02T09:33:54.818Z,102112.41
2023-04-02T09:36:38.317Z,102119.00
2023-04-02T09:39:23.236Z,102124.47
2023-04-02T09:42:05.156Z,102124.47
2023-04-02T09:44:37.895Z,102137.31
2023-04-02T09:47:27.365Z,102150.44
2023-04-02T09:50:34.116Z,102155.13
2023-04-02T09:53:31.341Z,102160.91
2023-04-02T09:56:15.256Z,102164.69
2023-04-02T09:59:03.221Z,102168.78
2023-04-02T10:01:57.082Z,102178.38
2023-04-02T10:04:46.793Z,102177.00
2023-04-02T10:07:43.732Z,102191.19
2023-04-02T10:10:18.694Z,102187.34
2023-04-02T10:12:59.680Z,102189.84
2023-04-02T10:15:54.259Z,102201.66
2023-04-02T10:18:49.684Z,102197.31
2023-04-02T10:21:35.098Z,102201.72
2023-04-02T10:24:16.264Z,102213.47
2023-04-02T10:27:22.577Z,102211.03
2023-04-02T10:30:09.562Z,102238.69
2023-04-02T10:33:06.869Z,102231.31
2023-04-02T10:36:19.603Z,102228.63
2023-04-02T10:38:58.105Z,102227.03
2023-04-02T10:42:12.207Z,102242.66
2023-04-02T10:45:41.496Z,102235.50
2023-04-02T10:48:33.766Z,102247.00
2023-04-02T10:51:25.369Z,102242.91
2023-04-02T10:54:13.719Z,102247.88
2023-04-02T10:56:51.186Z,102243.50
2023-04-02T10:59:30.132Z,102246.78
2023-04-02T11:02:34.179Z,102254.44
2023-04-02T11:05:22.005Z,102253.94
2023-04-02T11:08:10.652Z,102266.28
2023-04-02T11:10:50.669Z,102262.72
2023-04-02T11:13:31.503Z,102272.31
2023-04-02T11:16:03.957Z,102275.59
2023-04-02T11:18:37.184Z,102273.94
2023-04-02T11:21:57.996Z,102274.00
2023-04-02T11:24:38.561Z,102284.13
2023-04-02T11:27:28.100Z,102275.38
2023-04-02T11:30:26.493Z,102290.38
2023-04-02T11:33:38.108Z,102282.97
2023-04-02T11:36:53.636Z,102291.72
2023-04-02T11:39:53.549Z,102303.25
2023-04-02T11:42:34.506Z,102304.91
2023-04-02T11:45:24.568Z,102327.63
2023-04-02T11:47:59.587Z,102329.47
2023-04-02T11:50:31.557Z,102328.59
2023-04-02T11:53:20.466Z,102330.19
2023-04-02T11:56:02.130Z,102323.94
2023-04-02T11:59:00.379Z,102333.53
2023-04-02T12:02:03.407Z,102342.34
2023-04-02T12:05:16.398Z,102353.66
2023-04-02T12:08:05.799Z,102353.41
2023-04-02T12:10:56.595Z,102348.78
2023-04-02T12:13:40.533Z,102345.00
2023-04-02T12:16:14.273Z,102353.22
2023-04-02T12:18:54.521Z,102353.53
2023-04-02T12:21:29.488Z,102352.41
2023-04-02T12:24:03.824Z,102365.84
2023-04-02T12:26:38.084Z,102349.97
2023-04-02T12:29:26.845Z,102358.16
2023-04-02T12:31:59.971Z,102363.94
2023-04-02T12:34:31.853Z,102366.94
2023-04-02T12:37:05.517Z,102373.78
2023-04-02T12:39:37.374Z,102367.41
2023-04-02T12:42:37.632Z,102368.38
2023-04-02T12:45:41.756Z,102377.34
2023-04-02T12:48:13.731Z,102371.56
2023-04-02T12:50:47.248Z,102369.63
2023-04-02T12:53:24.057Z,102368.81
2023-04-02T12:55:56.315Z,102370.19
2023-04-02T12:58:41.442Z,102381.47
2023-04-02T13:01:24.697Z,102375.38
2023-04-02T13:04:12.383Z,102379.78
2023-04-02T13:06:55.163Z,102374.63
2023-04-02T13:09:39.283Z,102373.91
2023-04-02T13:12:34.514Z,102368.19
2023-04-02T13:15:19.964Z,102377.47
2023-04-02T13:18:13.375Z,102373.72
2023-04-02T13:21:06.251Z,102372.53
2023-04-02T13:23:38.112Z,102372.69
2023-04-02T13:26:24.511Z,102372.78
2023-04-02T13:29:19.340Z,102362.63
2023-04-02T13:31:54.115Z,102371.25
2023-04-02T13:34:26.585Z,102363.50
2023-04-02T13:37:00.444Z,102356.81
2023-04-02T13:39:32.214Z,102367.72
2023-04-02T13:42:06.604Z,102364.84
2023-04-02T13:44:38.428Z,102370.72
2023-04-02T13:47:14.753Z,102366.47
2023-04-02T13:49:49.844Z,102368.84
2023-04-02T13:52:21.593Z,102366.44
2023-04-02T13:54:59.994Z,102372.31
2023-04-02T13:57:31.816Z,102362.47
2023-04-02T14:00:11.015Z,102367.59
2023-04-02T14:02:54.012Z,102390.00
2023-04-02T14:06:03.007Z,102397.72
2023-04-02T14:08:52.507Z,102396.88
2023-04-02T14:12:10.932Z,102409.78
2023-04-02T14:15:27.568Z,102400.25
2023-04-02T14:18:41.332Z,102395.03
2023-04-02T14:21:43.743Z,102403.31
2023-04-02T14:24:41.836Z,102411.63
2023-04-02T14:27:42.856Z,102406.41
2023-04-02T14:30:28.169Z,102401.31
2023-04-02T14:33:30.394Z,102404.28
2023-04-02T14:36:28.302Z,102403.41
2023-04-02T14:39:18.124Z,102415.19
2023-04-02T14:42:13.734Z,102414.50
2023-04-02T14:44:57.745Z,102416.81
2023-04-02T14:47:39.703Z,102414.06
2023-04-02T14:50:41.805Z,102402.28
2023-04-02T14:53:48.902Z,102422.47
2023-04-02T14:56:24.506Z,102419.44
2023-04-02T14:59:43.224Z,102417.16
2023-04-02T15:02:30.465Z,102414.50
2023-04-02T15:05:32.391Z,102423.97
2023-04-02T15:08:29.553Z,102424.63
2023-04-02T15:11:08.423Z,102438.34
2023-04-02T15:13:52.299Z,102421.81
2023-04-02T15:16:28.824Z,102436.56
2023-04-02T15:19:02.825Z,102437.53
2023-04-02T15:22:03.922Z,102435.00
2023-04-02T15:25:20.624Z,102434.31
2023-04-02T15:28:13.660Z,102438.22
2023-04-02T15:30:54.368Z,102443.56
2023-04-02T15:33:40.536Z,102435.41
2023-04-02T15:36:55.939Z,102445.31
2023-04-02T15:39:56.737Z,102441.88
2023-04-02T15:42:34.716Z,102448.06
2023-04-02T15:45:08.119Z,102448.81
2023-04-02T15:48:11.872Z,102456.38
2023-04-02T15:50:49.564Z,102453.78
2023-04-02T15:53:39.188Z,102458.31
2023-04-02T15:56:38.551Z,102464.97
2023-04-02T15:59:40.847Z,102464.59
2023-04-02T16:02:43.767Z,102471.22
2023-04-02T16:05:43.394Z,102470.63
2023-04-02T16:09:00.904Z,102471.22
2023-04-02T16:11:33.660Z,102481.59
2023-04-02T16:14:27.908Z,102483.00
2023-04-02T16:17:17.500Z,102488.53
2023-04-02T16:20:18.393Z,102495.78
2023-04-02T16:23:22.282Z,102505.66
2023-04-02T16:26:06.165Z,102508.91
2023-04-02T16:29:02.269Z,102504.78
2023-04-02T16:32:02.251Z,102505.06
2023-04-02T16:34:57.644Z,102512.19
2023-04-02T16:37:50.333Z,102513.31
2023-04-02T16:40:25.139Z,102522.19
2023-04-02T16:43:08.681Z,102521.81
2023-04-02T16:46:15.760Z,102526.63
2023-04-02T16:49:04.711Z,102527.22
2023-04-02T16:52:09.230Z,102531.31
2023-04-02T16:55:01.172Z,102542.28
2023-04-02T16:57:56.945Z,102541.16
2023-04-02T17:01:05.037Z,102548.19
2023-04-02T17:04:32.582Z,102545.72
2023-04-02T17:07:34.576Z,102559.34
2023-04-02T17:10:30.155Z,102565.50
2023-04-02T17:13:39.063Z,102564.44
2023-04-02T17:16:32.467Z,102568.28
2023-04-02T17:19:14.020Z,102568.88
2023-04-02T17:21:52.186Z,102572.44
2023-04-02T17:24:31.968Z,102574.66
2023-04-02T17:27:17.076Z,102582.56
2023-04-02T17:29:55.067Z,102582.84
2023-04-02T17:32:32.620Z,102585.59
2023-04-02T17:35:32.188Z,102594.47
2023-04-02T17:38:30.415Z,102601.94
2023-04-02T17:41:36.596Z,102609.13
2023-04-02T17:44:42.270Z,102613.78
2023-04-02T17:47:46.267Z,102616.66
2023-04-02T17:50:38.660Z,102618.47
2023-04-02T17:53:34.708Z,102622.78
2023-04-02T17:56:33.586Z,102629.19
2023-04-02T17:59:23.719Z,102633.13
2023-04-02T18:02:24.707Z,102624.44
2023-04-02T18:05:32.762Z,102636.69
2023-04-02T18:08:34.826Z,102642.28
2023-04-02T18:11:14.177Z,102642.06
2023-04-02T18:14:42.360Z,102651.22
2023-04-02T18:17:38.645Z,102650.16
2023-04-02T18:20:42.899Z,102652.66
2023-04-02T18:23:36.393Z,102660.09
2023-04-02T18:26:44.258Z,102656.81
2023-04-02T18:29:40.269Z,102664.53
2023-04-02T18:33:03.308Z,102680.44
2023-04-02T18:35:53.527Z,102674.38
2023-04-02T18:38:51.016Z,102691.38
2023-04-02T18:41:57.461Z,102690.25
2023-04-02T18:45:03.382Z,102684.22
2023-04-02T18:48:01.608Z,102700.66
2023-04-02T18:50:45.965Z,102701.50
2023-04-02T18:53:24.286Z,102707.22
2023-04-02T18:56:13.998Z,102708.03
2023-04-02T18:58:52.798Z,102711.59
2023-04-02T19:01:39.611Z,102712.69
2023-04-02T19:04:20.543Z,102714.56
2023-04-02T19:07:04.109Z,102723.03
2023-04-02T19:09:44.189Z,102732.34
2023-04-02T19:12:22.228Z,102727.91
2023-04-02T19:14:55.914Z,102733.94
2023-04-02T19:17:39.450Z,102735.56
2023-04-02T19:20:40.783Z,102748.41
2023-04-02T19:24:00.054Z,102743.44
2023-04-02T19:27:27.282Z,102758.16
2023-04-02T19:30:17.169Z,102753.69
2023-04-02T19:33:27.095Z,102758.28
2023-04-02T19:36:41.005Z,102766.44
2023-04-02T19:39:50.032Z,102767.75
2023-04-02T19:42:46.239Z,102771.53
2023-04-02T19:45:47.859Z,102774.50
2023-04-02T19:48:26.720Z,102770.34
2023-04-02T19:50:58.460Z,102775.75
2023-04-02T19:53:30.414Z,102777.59
2023-04-02T19:56:03.406Z,102781.41
2023-04-02T19:58:36.476Z,102790.38
2023-04-02T20:01:08.231Z,102785.34
2023-04-02T20:03:39.992Z,102781.16
2023-04-02T20:06:12.141Z,102778.38
2023-04-02T20:08:43.884Z,102789.25
2023-04-02T20:11:27.624Z,102791.41
2023-04-02T20:13:59.304Z,102788.63
2023-04-02T20:16:32.704Z,102791.31
2023-04-02T20:19:04.354Z,102784.69
2023-04-02T20:21:38.548Z,102794.50
2023-04-02T20:24:11.225Z,102788.13
2023-04-02T20:26:43.770Z,102797.03
2023-04-02T20:29:15.664Z,102791.50
2023-04-02T20:31:47.427Z,102806.22
2023-04-02T20:34:19.252Z,102798.44
2023-04-02T20:36:51.847Z,102804.41
2023-04-02T20:39:24.123Z,102803.28
2023-04-02T20:42:00.938Z,102804.56
2023-04-02T20:44:32.581Z,102812.47
2023-04-02T20:47:07.036Z,102813.47
2023-04-02T20:49:38.654Z,102818.84
2023-04-02T20:52:10.765Z,102821.50
2023-04-02T20:54:42.505Z,102819.28
2023-04-02T20:57:15.607Z,102826.91
2023-04-02T20:59:47.335Z,102824.69
2023-04-02T21:02:19.095Z,102833.38
2023-04-02T21:04:50.943Z,102839.81
2023-04-02T21:07:22.745Z,102841.38
2023-04-02T21:09:54.425Z,102847.94
2023-04-02T21:12:27.000Z,102853.31
2023-04-02T21:15:01.805Z,102854.56
2023-04-02T21:17:34.404Z,102850.25
2023-04-02T21:20:06.903Z,102849.81
2023-04-02T21:22:40.799Z,102848.53
2023-04-02T21:25:12.575Z,102863.19
2023-04-02T21:27:44.339Z,102859.38
2023-04-02T21:30:16.386Z,102870.06
2023-04-02T21:32:48.152Z,102870.28
2023-04-02T21:35:19.834Z,102874.56
2023-04-02T21:37:51.956Z,102876.16
2023-04-02T21:40:24.659Z,102873.56
2023-04-02T21:42:57.605Z,102868.72
2023-04-02T21:45:29.372Z,102869.44
2023-04-02T21:48:01.326Z,102870.53
2023-04-02T21:50:33.152Z,102868.03
2023-04-02T21:53:04.971Z,102866.94
2023-04-02T21:55:36.646Z,102871.94
2023-04-02T21:58:08.531Z,102868.63
2023-04-02T22:00:40.386Z,102875.63
2023-04-02T22:03:18.504Z,102879.56
2023-04-02T22:06:11.899Z,102878.03
2023-04-02T22:08:44.661Z,102876.03
2023-04-02T22:11:21.257Z,102869.47
2023-04-02T22:13:54.118Z,102881.25
2023-04-02T22:16:29.846Z,102881.59
2023-04-02T22:19:06.010Z,102885.41
2023-04-02T22:21:38.353Z,102891.69
2023-04-02T22:24:14.848Z,102895.50
2023-04-02T22:26:47.383Z,102898.44
2023-04-02T22:29:19.181Z,102899.97
2023-04-02T22:31:51.035Z,102901.66
2023-04-02T22:34:22.734Z,102906.03
2023-04-02T22:36:54.508Z,102902.84
2023-04-02T22:39:26.364Z,102902.38
2023-04-02T22:41:58.055Z,102902.25
2023-04-02T22:44:29.803Z,102905.22
2023-04-02T22:47:01.570Z,102908.78
2023-04-02T22:49:33.433Z,102900.00
2023-04-02T22:52:06.067Z,102892.06
2023-04-02T22:54:37.843Z,102894.78
2023-04-02T22:57:09.671Z,102897.28
2023-04-02T22:59:41.476Z,102895.97
2023-04-02T23:02:13.278Z,102902.25
2023-04-02T23:04:45.111Z,102904.38
2023-04-02T23:07:17.117Z,102898.59
2023-04-02T23:09:49.398Z,102909.97
2023-04-02T23:12:21.375Z,102907.94
2023-04-02T23:14:53.621Z,102912.78
2023-04-02T23:17:25.387Z,102906.13
2023-04-02T23:19:57.177Z,102909.69
2023-04-02T23:22:28.896Z,102902.38
2023-04-02T23:25:00.842Z,102918.13
2023-04-02T23:27:33.642Z,102905.53
2023-04-02T23:30:09.929Z,102908.75
2023-04-02T23:32:47.888Z,102915.63
2023-04-02T23:35:21.917Z,102920.38
2023-04-02T23:37:55.133Z,102918.94
2023-04-02T23:40:29.371Z,102914.78
2023-04-02T23:43:03.369Z,102916.91
2023-04-02T23:45:39.168Z,102917.53
2023-04-02T23:48:13.702Z,102915.84
2023-04-02T23:50:48.774Z,102921.28
2023-04-02T23:53:21.937Z,102921.53
2023-04-02T23:55:56.142Z,102924.00
2023-04-02T23:58:29.394Z,102918.56
